createdAt,value
2023-05-06T00:02:15.950Z,15.79
2023-05-06T00:07:18.102Z,15.82
2023-05-06T00:12:20.327Z,15.89
2023-05-06T00:17:22.253Z,15.78
2023-05-06T00:22:24.949Z,15.74
2023-05-06T00:27:27.007Z,15.60
2023-05-06T00:32:28.730Z,15.58
2023-05-06T00:37:30.687Z,15.64
2023-05-06T00:42:33.277Z,15.62
2023-05-06T00:47:35.716Z,15.64
2023-05-06T00:52:37.925Z,15.67
2023-05-06T00:57:40.347Z,15.70
2023-05-06T01:02:47.618Z,15.68
2023-05-06T01:07:56.126Z,15.63
2023-05-06T01:13:03.833Z,15.53
2023-05-06T01:18:10.722Z,15.53
2023-05-06T01:23:14.888Z,15.54
2023-05-06T01:28:17.349Z,15.51
2023-05-06T01:33:50.637Z,15.45
2023-05-06T01:39:04.861Z,15.36
2023-05-06T01:44:07.865Z,15.26
2023-05-06T01:49:11.556Z,15.24
2023-05-06T01:54:13.328Z,15.21
2023-05-06T01:59:15.518Z,15.18
2023-05-06T02:04:17.250Z,15.13
2023-05-06T02:09:19.098Z,15.13
2023-05-06T02:14:27.284Z,15.02
2023-05-06T02:19:29.779Z,14.93
2023-05-06T02:24:32.238Z,14.90
2023-05-06T02:29:34.385Z,15.01
2023-05-06T02:34:37.847Z,15.03
2023-05-06T02:39:39.495Z,15.08
2023-05-06T02:44:42.690Z,15.07
2023-05-06T02:49:44.464Z,14.99
2023-05-06T02:54:47.870Z,14.96
2023-05-06T02:59:49.786Z,14.93
2023-05-06T03:04:51.775Z,14.96
2023-05-06T03:09:53.758Z,14.93
2023-05-06T03:14:56.032Z,14.90
2023-05-06T03:19:57.951Z,14.86
2023-05-06T03:24:59.739Z,14.89
2023-05-06T03:30:04.090Z,14.88
2023-05-06T03:35:07.443Z,14.84
2023-05-06T03:40:09.721Z,14.79
2023-05-06T03:45:12.000Z,14.72
2023-05-06T03:50:14.058Z,14.82
2023-05-06T03:55:17.140Z,14.81
2023-05-06T04:00:19.261Z,14.76
2023-05-06T04:05:25.610Z,14.76
2023-05-06T04:10:27.907Z,14.77
2023-05-06T04:15:36.471Z,14.57
2023-05-06T04:20:41.560Z,14.62
2023-05-06T04:25:48.669Z,14.67
2023-05-06T04:30:52.775Z,14.72
2023-05-06T04:35:58.003Z,14.75
2023-05-06T04:41:01.618Z,14.67
2023-05-06T04:46:03.732Z,14.66
2023-05-06T04:51:09.277Z,14.75
2023-05-06T04:56:12.237Z,14.77
2023-05-06T05:01:14.927Z,14.82
2023-05-06T05:06:16.853Z,14.90
2023-05-06T05:11:20.163Z,15.00
2023-05-06T05:16:21.856Z,15.03
2023-05-06T05:21:24.502Z,15.00
2023-05-06T05:26:26.656Z,14.93
2023-05-06T05:31:31.251Z,14.99
2023-05-06T05:36:33.978Z,15.15
2023-05-06T05:41:38.942Z,15.17
2023-05-06T05:46:41.774Z,15.24
2023-05-06T05:51:45.184Z,15.33
2023-05-06T05:56:50.590Z,15.35
2023-05-06T06:01:52.755Z,15.39
2023-05-06T06:06:57.820Z,15.44
2023-05-06T06:11:59.997Z,15.45
2023-05-06T06:17:02.662Z,15.51
2023-05-06T06:22:04.919Z,15.60
2023-05-06T06:27:09.272Z,15.65
2023-05-06T06:32:11.552Z,15.72
2023-05-06T06:37:14.563Z,15.81
2023-05-06T06:42:16.277Z,15.82
2023-05-06T06:47:26.110Z,15.88
2023-05-06T06:52:27.848Z,15.80
2023-05-06T06:57:29.555Z,15.76
2023-05-06T07:02:32.644Z,15.75
2023-05-06T07:07:34.361Z,15.81
2023-05-06T07:12:36.373Z,15.86
2023-05-06T07:17:38.452Z,15.91
2023-05-06T07:22:41.226Z,16.00
2023-05-06T07:27:43.012Z,16.02
2023-05-06T07:32:44.817Z,16.10
2023-05-06T07:37:46.829Z,16.18
2023-05-06T07:42:48.518Z,16.34
2023-05-06T07:47:50.481Z,16.36
2023-05-06T07:52:52.310Z,16.33
2023-05-06T07:57:56.050Z,16.37
2023-05-06T08:02:58.782Z,16.56
2023-05-06T08:08:00.948Z,16.57
2023-05-06T08:13:03.253Z,16.63
2023-05-06T08:18:20.785Z,16.62
2023-05-06T08:23:24.050Z,16.73
2023-05-06T08:28:25.947Z,16.72
2023-05-06T08:33:27.974Z,16.77
2023-05-06T08:38:30.832Z,16.71
2023-05-06T08:43:40.097Z,16.86
2023-05-06T08:48:42.186Z,17.18
2023-05-06T08:53:48.383Z,17.31
2023-05-06T08:58:51.970Z,17.24
2023-05-06T09:03:55.464Z,17.31
2023-05-06T09:08:57.655Z,17.27
2023-05-06T09:14:12.297Z,17.32
2023-05-06T09:19:16.329Z,17.32
2023-05-06T09:24:18.165Z,17.65
2023-05-06T09:29:19.841Z,17.71
2023-05-06T09:34:22.659Z,17.78
2023-05-06T09:39:27.694Z,17.62
2023-05-06T09:44:29.406Z,17.70
2023-05-06T09:49:31.628Z,18.01
2023-05-06T09:54:34.496Z,18.15
2023-05-06T09:59:36.668Z,18.21
2023-05-06T10:04:41.040Z,18.29
2023-05-06T10:09:42.975Z,18.49
2023-05-06T10:14:44.724Z,18.61
2023-05-06T10:19:48.902Z,18.90
2023-05-06T10:25:10.997Z,19.00
2023-05-06T10:30:17.124Z,19.13
2023-05-06T10:35:30.058Z,19.33
2023-05-06T10:40:32.461Z,19.39
2023-05-06T10:46:09.032Z,19.43
2023-05-06T10:51:20.330Z,19.57
2023-05-06T10:56:22.287Z,19.69
2023-05-06T11:01:28.080Z,19.65
2023-05-06T11:06:34.209Z,19.81
2023-05-06T11:12:02.654Z,19.92
2023-05-06T11:17:07.712Z,19.92
2023-05-06T11:22:39.040Z,20.01
2023-05-06T11:27:41.864Z,19.87
2023-05-06T11:32:44.038Z,19.96
2023-05-06T11:37:46.069Z,20.16
2023-05-06T11:42:47.725Z,20.19
2023-05-06T11:47:49.382Z,20.25
2023-05-06T11:52:51.825Z,20.44
2023-05-06T11:57:53.864Z,20.38
2023-05-06T12:02:56.803Z,20.60
2023-05-06T12:07:59.233Z,20.87
2023-05-06T12:13:01.311Z,20.76
2023-05-06T12:18:04.569Z,20.75
2023-05-06T12:23:11.230Z,20.92
2023-05-06T12:28:20.886Z,20.98
2023-05-06T12:33:23.237Z,21.21
2023-05-06T12:38:25.233Z,21.42
2023-05-06T12:43:31.321Z,21.43
2023-05-06T12:48:33.621Z,21.05
2023-05-06T12:53:35.758Z,21.26
2023-05-06T12:58:38.529Z,21.42
2023-05-06T13:03:41.325Z,21.56
2023-05-06T13:08:43.739Z,21.64
2023-05-06T13:13:45.556Z,21.80
2023-05-06T13:18:47.211Z,21.81
2023-05-06T13:23:49.365Z,21.84
2023-05-06T13:28:51.548Z,21.89
2023-05-06T13:33:53.776Z,22.00
2023-05-06T13:38:56.173Z,22.17
2023-05-06T13:43:57.794Z,22.11
2023-05-06T13:48:59.481Z,22.12
2023-05-06T13:54:02.416Z,22.27
2023-05-06T13:59:04.239Z,22.22
2023-05-06T14:04:06.458Z,22.30
2023-05-06T14:09:08.092Z,22.42
2023-05-06T14:14:09.759Z,22.57
2023-05-06T14:19:11.536Z,22.56
2023-05-06T14:24:13.468Z,22.70
2023-05-06T14:29:15.141Z,22.87
2023-05-06T14:34:16.817Z,22.75
2023-05-06T14:39:18.744Z,22.86
2023-05-06T14:44:21.547Z,22.90
2023-05-06T14:49:24.859Z,23.13
2023-05-06T14:54:29.173Z,23.08
2023-05-06T14:59:31.030Z,23.10
2023-05-06T15:04:33.083Z,22.99
2023-05-06T15:09:43.967Z,22.77
2023-05-06T15:14:45.736Z,23.01
2023-05-06T15:19:48.166Z,23.09
2023-05-06T15:24:49.816Z,23.26
2023-05-06T15:29:51.476Z,23.45
2023-05-06T15:34:53.092Z,23.45
2023-05-06T15:39:54.771Z,23.15
2023-05-06T15:44:57.705Z,22.84
2023-05-06T15:49:59.810Z,22.43
2023-05-06T15:55:01.781Z,22.29
2023-05-06T16:00:05.155Z,22.48
2023-05-06T16:05:09.632Z,22.68
2023-05-06T16:10:11.995Z,22.79
2023-05-06T16:15:13.885Z,22.97
2023-05-06T16:20:15.673Z,22.72
2023-05-06T16:25:17.458Z,22.48
2023-05-06T16:30:19.481Z,22.58
2023-05-06T16:35:21.177Z,22.79
2023-05-06T16:40:22.877Z,22.45
2023-05-06T16:45:27.015Z,22.13
2023-05-06T16:50:29.136Z,22.09
2023-05-06T16:55:30.770Z,22.35
2023-05-06T17:00:32.695Z,22.56
2023-05-06T17:05:34.632Z,22.56
2023-05-06T17:10:36.402Z,22.40
2023-05-06T17:15:38.434Z,22.31
2023-05-06T17:20:54.420Z,22.26
2023-05-06T17:25:58.130Z,22.21
2023-05-06T17:30:59.866Z,22.11
2023-05-06T17:36:01.888Z,22.00
2023-05-06T17:41:03.664Z,21.60
2023-05-06T17:46:06.764Z,20.96
2023-05-06T17:51:08.597Z,20.67
2023-05-06T17:56:10.312Z,20.03
2023-05-06T18:01:12.140Z,19.65
2023-05-06T18:06:13.967Z,19.30
2023-05-06T18:11:17.152Z,18.91
2023-05-06T18:16:19.161Z,18.55
2023-05-06T18:21:21.144Z,18.24
2023-05-06T18:26:42.727Z,18.02
2023-05-06T18:31:44.867Z,17.66
2023-05-06T18:36:46.893Z,17.47
2023-05-06T18:41:48.627Z,17.29
2023-05-06T18:46:50.948Z,17.13
2023-05-06T18:51:54.047Z,17.10
2023-05-06T18:56:56.083Z,16.99
2023-05-06T19:01:57.851Z,16.71
2023-05-06T19:06:59.553Z,16.54
2023-05-06T19:12:01.273Z,16.41
2023-05-06T19:17:03.635Z,16.26
2023-05-06T19:22:05.735Z,16.04
2023-05-06T19:27:08.133Z,15.79
2023-05-06T19:32:09.782Z,15.64
2023-05-06T19:37:11.441Z,15.53
2023-05-06T19:42:13.256Z,15.42
2023-05-06T19:47:15.039Z,15.32
2023-05-06T19:52:16.680Z,15.08
2023-05-06T19:57:19.429Z,15.13
2023-05-06T20:02:21.427Z,15.22
2023-05-06T20:07:23.256Z,15.36
2023-05-06T20:12:28.425Z,15.43
2023-05-06T20:17:30.641Z,15.11
2023-05-06T20:22:32.693Z,15.08
2023-05-06T20:27:34.382Z,15.25
2023-05-06T20:32:37.185Z,15.28
2023-05-06T20:37:39.170Z,15.26
2023-05-06T20:42:41.019Z,15.34
2023-05-06T20:47:42.938Z,15.28
2023-05-06T20:52:47.124Z,15.03
2023-05-06T20:57:49.286Z,14.81
2023-05-06T21:02:51.186Z,14.76
2023-05-06T21:07:53.082Z,14.60
2023-05-06T21:12:54.809Z,14.48
2023-05-06T21:17:56.606Z,14.30
2023-05-06T21:22:58.909Z,14.22
2023-05-06T21:28:05.340Z,14.20
2023-05-06T21:33:08.329Z,14.24
2023-05-06T21:38:10.820Z,14.29
2023-05-06T21:43:12.751Z,14.15
2023-05-06T21:48:14.569Z,14.11
2023-05-06T21:53:16.361Z,14.18
2023-05-06T21:58:18.503Z,14.25
2023-05-06T22:03:20.421Z,14.30
2023-05-06T22:08:22.197Z,14.28
2023-05-06T22:13:26.434Z,14.25
2023-05-06T22:18:29.926Z,14.22
2023-05-06T22:23:31.745Z,14.20
2023-05-06T22:28:33.363Z,14.05
2023-05-06T22:33:35.053Z,13.83
2023-05-06T22:38:36.671Z,13.81
2023-05-06T22:43:38.697Z,13.75
2023-05-06T22:48:40.510Z,13.70
2023-05-06T22:53:42.323Z,13.47
2023-05-06T22:58:44.164Z,13.52
2023-05-06T23:03:45.943Z,13.70
2023-05-06T23:08:47.765Z,13.74
2023-05-06T23:13:49.529Z,13.54
2023-05-06T23:18:51.355Z,13.60
2023-05-06T23:23:53.051Z,13.59
2023-05-06T23:28:54.748Z,13.50
2023-05-06T23:33:56.429Z,13.45
2023-05-06T23:38:58.129Z,13.32
2023-05-06T23:43:59.818Z,13.33
2023-05-06T23:49:01.533Z,13.35
2023-05-06T23:54:03.318Z,13.37
2023-05-06T23:59:05.073Z,13.45
